Time;durP1;ratioP1;P1;durP2;ratioP2;P2;SDS_P1;SDS_P2;PMS_P1;PMS_P2;Temp;Humidity;BMP_temperature;BMP_pressure;BME280_temperature;BME280_humidity;BME280_pressure;Samples;Min_cycle;Max_cycle;Signal;HPM_P1;HPM_P2
2021/03/17 00:01:56;;;;;;;17.48;11.15;;;5.70;75.80;;;;;;5041828;28;20075;-61
2021/03/17 00:04:23;;;;;;;16.98;11.27;;;5.70;76.00;;;;;;5048172;28;20049;-61
2021/03/17 00:06:49;;;;;;;13.93;10.07;;;5.60;75.70;;;;;;5046604;28;20033;-61
2021/03/17 00:09:14;;;;;;;17.30;11.63;;;5.60;75.80;;;;;;5043071;28;20037;-61
2021/03/17 00:11:40;;;;;;;16.52;11.60;;;5.50;75.70;;;;;;5041579;28;20032;-61
2021/03/17 00:14:05;;;;;;;17.90;10.98;;;5.50;75.90;;;;;;5039674;28;20083;-61
2021/03/17 00:16:31;;;;;;;14.48;10.73;;;5.50;76.00;;;;;;5047489;28;20021;-61
2021/03/17 00:18:57;;;;;;;14.20;10.48;;;5.50;76.20;;;;;;5049687;28;20385;-61
2021/03/17 00:21:22;;;;;;;15.25;11.73;;;5.40;76.20;;;;;;5051747;28;20029;-63
2021/03/17 00:23:48;;;;;;;18.60;11.32;;;5.40;76.20;;;;;;5042217;28;20037;-62
2021/03/17 00:26:14;;;;;;;18.40;10.90;;;5.40;76.30;;;;;;5044817;28;20021;-61
2021/03/17 00:28:40;;;;;;;13.82;11.00;;;5.40;76.40;;;;;;5049697;28;20048;-61
2021/03/17 00:31:05;;;;;;;17.98;11.57;;;5.40;76.60;;;;;;5050320;28;20372;-59
2021/03/17 00:33:31;;;;;;;12.88;10.68;;;5.40;76.50;;;;;;5048289;28;20535;-60
2021/03/17 00:35:56;;;;;;;17.10;10.85;;;5.40;76.50;;;;;;5044782;28;20029;-59
2021/03/17 00:38:22;;;;;;;18.92;12.32;;;5.40;76.80;;;;;;5044987;28;20036;-61
2021/03/17 00:40:48;;;;;;;15.13;10.90;;;5.40;76.80;;;;;;5051340;28;20496;-61
2021/03/17 00:43:13;;;;;;;14.13;10.27;;;5.50;76.80;;;;;;5046172;28;20021;-61
2021/03/17 00:45:39;;;;;;;15.02;11.27;;;5.50;76.70;;;;;;5043042;28;20030;-61
2021/03/17 00:48:05;;;;;;;14.95;10.75;;;5.50;76.30;;;;;;5043193;28;20025;-61
2021/03/17 00:50:31;;;;;;;12.90;10.05;;;5.60;76.50;;;;;;5036552;28;20493;-60
2021/03/17 00:52:57;;;;;;;15.38;9.95;;;5.50;76.10;;;;;;5048857;28;20048;-61
2021/03/17 00:55:23;;;;;;;13.07;9.52;;;5.50;76.40;;;;;;5049760;28;20074;-62
2021/03/17 00:57:49;;;;;;;15.70;9.88;;;5.60;76.20;;;;;;5041775;28;20032;-61
2021/03/17 01:00:16;;;;;;;18.35;9.82;;;5.50;76.30;;;;;;5040770;28;20433;-61
2021/03/17 01:02:42;;;;;;;18.83;9.95;;;5.50;76.40;;;;;;5049872;28;20120;-61
2021/03/17 01:05:09;;;;;;;13.63;10.63;;;5.50;76.40;;;;;;5046947;28;20113;-61
2021/03/17 01:07:35;;;;;;;14.27;10.45;;;5.50;76.40;;;;;;5038446;28;20029;-61
2021/03/17 01:10:01;;;;;;;17.58;10.77;;;5.50;76.60;;;;;;5047439;28;20039;-60
2021/03/17 01:12:27;;;;;;;14.10;9.13;;;5.50;76.60;;;;;;5041556;28;20425;-59
2021/03/17 01:14:53;;;;;;;14.43;10.43;;;5.50;76.50;;;;;;5044120;28;20026;-61
2021/03/17 01:17:18;;;;;;;14.18;10.50;;;5.50;76.40;;;;;;5047489;28;20025;-61
2021/03/17 01:19:44;;;;;;;14.43;9.77;;;5.50;76.40;;;;;;5050113;28;20381;-61
2021/03/17 01:22:10;;;;;;;15.30;10.50;;;5.60;76.50;;;;;;5051073;28;20025;-61
2021/03/17 01:24:35;;;;;;;13.85;9.95;;;5.60;76.60;;;;;;5045091;28;20393;-61
2021/03/17 01:27:01;;;;;;;14.20;9.60;;;5.60;76.50;;;;;;5047639;28;20028;-61
2021/03/17 01:29:27;;;;;;;17.90;10.40;;;5.60;76.40;;;;;;5049146;28;20028;-62
2021/03/17 01:31:52;;;;;;;15.70;9.40;;;5.60;76.40;;;;;;5041526;28;20068;-61
2021/03/17 01:34:18;;;;;;;11.00;8.73;;;5.60;76.60;;;;;;5040304;28;20389;-61
2021/03/17 01:36:44;;;;;;;15.85;10.40;;;5.60;76.40;;;;;;5041942;28;20150;-61
2021/03/17 01:39:10;;;;;;;14.30;9.20;;;5.60;76.60;;;;;;5050803;28;20396;-61
2021/03/17 01:41:36;;;;;;;18.13;9.25;;;5.60;76.40;;;;;;5046035;28;20033;-61
2021/03/17 01:44:03;;;;;;;12.43;9.48;;;5.70;76.50;;;;;;5045482;28;20087;-60
2021/03/17 01:46:28;;;;;;;16.08;9.60;;;5.70;76.50;;;;;;5041697;28;20502;-61
2021/03/17 01:48:54;;;;;;;13.30;9.48;;;5.70;76.50;;;;;;5035692;28;20022;-61
2021/03/17 01:51:20;;;;;;;13.38;8.93;;;5.60;76.50;;;;;;5044410;28;20056;-61
2021/03/17 01:53:46;;;;;;;12.05;8.35;;;5.60;76.60;;;;;;5044143;28;20067;-61
2021/03/17 01:56:12;;;;;;;15.55;10.23;;;5.60;76.40;;;;;;5040834;28;20505;-61
2021/03/17 01:58:39;;;;;;;14.75;9.02;;;5.60;76.50;;;;;;5047748;28;20056;-61
2021/03/17 02:01:05;;;;;;;15.05;9.82;;;5.60;76.40;;;;;;5039379;28;20100;-62
2021/03/17 02:03:31;;;;;;;12.52;9.02;;;5.60;76.40;;;;;;5048665;28;20116;-61
2021/03/17 02:05:58;;;;;;;16.10;10.75;;;5.60;76.40;;;;;;5042109;28;20083;-61
2021/03/17 02:08:29;;;;;;;16.42;9.52;;;5.60;76.50;;;;;;5050500;28;20029;-61
2021/03/17 02:10:55;;;;;;;16.85;9.80;;;5.60;76.60;;;;;;5049398;28;20025;-61
2021/03/17 02:13:33;;;;;;;16.58;9.93;;;5.60;77.10;;;;;;5039900;28;20025;-61
2021/03/17 02:16:18;;;;;;;11.52;8.43;;;5.60;76.70;;;;;;5045706;28;20373;-61
2021/03/17 02:19:03;;;;;;;10.90;8.45;;;5.50;76.50;;;;;;5035977;28;20048;-61
2021/03/17 02:21:47;;;;;;;12.20;8.60;;;5.50;76.70;;;;;;5044161;28;20040;-61
2021/03/17 02:24:21;;;;;;;13.23;8.38;;;5.50;76.90;;;;;;5036594;28;20022;-61
2021/03/17 02:27:15;;;;;;;15.55;9.98;;;5.50;76.90;;;;;;5043801;28;20037;-61
2021/03/17 02:30:08;;;;;;;17.42;8.88;;;5.40;76.60;;;;;;5044512;28;20021;-61
2021/03/17 02:32:47;;;;;;;12.98;9.60;;;5.50;77.00;;;;;;5031448;28;20060;-61
2021/03/17 02:35:15;;;;;;;11.90;9.18;;;5.50;77.00;;;;;;5039432;28;20067;-61
2021/03/17 02:37:43;;;;;;;14.63;9.95;;;5.50;77.10;;;;;;5042268;28;20063;-61
2021/03/17 02:40:32;;;;;;;14.60;9.73;;;5.50;77.10;;;;;;5039970;28;20029;-61
2021/03/17 02:43:08;;;;;;;13.73;9.25;;;5.50;77.10;;;;;;5042456;28;20572;-61
2021/03/17 02:45:36;;;;;;;14.35;9.18;;;5.50;77.20;;;;;;5042739;28;20501;-61
2021/03/17 02:48:10;;;;;;;16.85;8.93;;;5.50;77.20;;;;;;5037041;28;20075;-61
2021/03/17 02:50:37;;;;;;;19.35;9.90;;;5.50;77.10;;;;;;5039564;28;20063;-61
2021/03/17 02:53:04;;;;;;;16.27;9.77;;;5.60;77.20;;;;;;5046588;28;20025;-61
2021/03/17 02:55:37;;;;;;;14.45;9.38;;;5.60;77.10;;;;;;5040756;28;20029;-61
2021/03/17 02:58:03;;;;;;;11.95;8.52;;;5.60;77.10;;;;;;5049076;28;20109;-60
2021/03/17 03:00:31;;;;;;;14.15;9.52;;;5.60;77.10;;;;;;5044171;28;20044;-61
2021/03/17 03:02:59;;;;;;;12.27;8.57;;;5.60;77.20;;;;;;5044134;28;20051;-61
2021/03/17 03:05:27;;;;;;;16.13;9.95;;;5.60;77.10;;;;;;5045447;28;20036;-61
2021/03/17 03:07:54;;;;;;;18.45;11.32;;;5.60;77.20;;;;;;5038430;28;20427;-61
2021/03/17 03:10:22;;;;;;;14.68;9.25;;;5.60;77.20;;;;;;5037171;28;20018;-61
2021/03/17 03:12:51;;;;;;;18.33;9.20;;;5.60;77.30;;;;;;5046929;28;20112;-61
2021/03/17 03:15:18;;;;;;;16.48;9.07;;;5.60;77.10;;;;;;5037245;28;20025;-61
2021/03/17 03:17:47;;;;;;;20.17;10.35;;;5.60;77.20;;;;;;5037506;28;20145;-61
2021/03/17 03:20:18;;;;;;;11.27;7.97;;;5.60;77.20;;;;;;5032798;28;20033;-61
2021/03/17 03:22:46;;;;;;;11.70;8.80;;;5.60;77.10;;;;;;5038317;28;20025;-61
2021/03/17 03:25:15;;;;;;;19.23;10.77;;;5.60;77.30;;;;;;5044335;28;20029;-60
2021/03/17 03:27:43;;;;;;;13.65;9.02;;;5.60;77.40;;;;;;5044889;28;20544;-61
2021/03/17 03:30:18;;;;;;;13.32;9.40;;;5.60;77.30;;;;;;5042232;28;20024;-60
2021/03/17 03:32:44;;;;;;;18.20;10.23;;;5.60;77.50;;;;;;5044601;28;20075;-61
2021/03/17 03:35:14;;;;;;;20.38;10.82;;;5.60;77.40;;;;;;5050441;28;20067;-61
2021/03/17 03:37:40;;;;;;;16.40;10.27;;;5.60;77.40;;;;;;5043933;28;20039;-61
2021/03/17 03:40:18;;;;;;;14.85;9.05;;;5.60;77.30;;;;;;5039647;28;20406;-61
2021/03/17 03:42:45;;;;;;;17.13;9.40;;;5.60;77.30;;;;;;5040284;28;20064;-60
2021/03/17 03:45:13;;;;;;;12.90;8.63;;;5.60;77.50;;;;;;5050548;28;20029;-60
2021/03/17 03:47:39;;;;;;;15.38;9.07;;;5.60;77.40;;;;;;5040055;28;20025;-59
2021/03/17 03:50:07;;;;;;;14.82;9.48;;;5.60;77.40;;;;;;5045884;28;20043;-62
2021/03/17 03:52:45;;;;;;;15.75;9.52;;;5.60;77.50;;;;;;5042574;28;20021;-62
2021/03/17 03:55:23;;;;;;;15.68;10.18;;;5.60;77.40;;;;;;5039883;28;20032;-60
2021/03/17 03:57:50;;;;;;;14.35;8.93;;;5.60;77.50;;;;;;5046467;28;20063;-60
2021/03/17 04:00:21;;;;;;;14.60;8.93;;;5.60;77.50;;;;;;5049019;28;20518;-60
2021/03/17 04:02:50;;;;;;;17.60;10.65;;;5.60;77.60;;;;;;5048533;28;20036;-60
2021/03/17 04:05:25;;;;;;;17.17;10.27;;;5.60;77.60;;;;;;5050232;28;20036;-59
2021/03/17 04:07:55;;;;;;;17.33;9.18;;;5.60;77.60;;;;;;5050570;28;20029;-60
2021/03/17 04:10:23;;;;;;;14.88;9.43;;;5.60;77.40;;;;;;5038924;28;20100;-60
2021/03/17 04:12:51;;;;;;;13.35;9.20;;;5.60;77.50;;;;;;5042437;28;20370;-59
2021/03/17 04:15:17;;;;;;;18.27;10.20;;;5.60;77.50;;;;;;5051553;28;20033;-58
2021/03/17 04:17:55;;;;;;;14.60;8.52;;;5.60;77.50;;;;;;5048638;28;20037;-62
2021/03/17 04:20:30;;;;;;;18.83;9.25;;;5.70;77.50;;;;;;5048996;28;20428;-60
2021/03/17 04:22:56;;;;;;;14.68;10.57;;;5.60;77.50;;;;;;5047439;28;20048;-60
2021/03/17 04:25:24;;;;;;;17.65;10.27;;;5.60;77.70;;;;;;5046951;28;20033;-59
2021/03/17 04:27:51;;;;;;;13.27;8.57;;;5.60;77.80;;;;;;5052261;28;20025;-59
2021/03/17 04:30:20;;;;;;;15.52;9.07;;;5.60;77.80;;;;;;5052818;28;20060;-59
2021/03/17 04:32:47;;;;;;;17.13;9.52;;;5.60;77.90;;;;;;5050243;28;20073;-60
2021/03/17 04:35:15;;;;;;;14.23;9.90;;;5.60;78.00;;;;;;5052849;28;20017;-60
2021/03/17 04:37:43;;;;;;;20.20;10.48;;;5.60;78.10;;;;;;5052955;28;20037;-60
2021/03/17 04:40:10;;;;;;;13.98;9.43;;;5.60;78.10;;;;;;5048054;28;20025;-58
2021/03/17 04:42:38;;;;;;;18.80;9.68;;;5.60;78.30;;;;;;5044074;28;20025;-60
2021/03/17 04:45:05;;;;;;;15.52;9.50;;;5.60;78.20;;;;;;5049599;28;20485;-60
2021/03/17 04:47:31;;;;;;;15.73;9.43;;;5.60;78.00;;;;;;5039710;28;20393;-61
2021/03/17 04:49:58;;;;;;;18.58;9.98;;;5.60;77.90;;;;;;5040766;28;20017;-60
2021/03/17 04:52:25;;;;;;;17.38;11.07;;;5.60;77.90;;;;;;5050277;28;20025;-60
2021/03/17 04:54:53;;;;;;;16.67;9.80;;;5.60;77.90;;;;;;5049763;28;20021;-59
2021/03/17 04:57:26;;;;;;;15.15;9.23;;;5.60;78.30;;;;;;5045239;28;20098;-60
2021/03/17 04:59:52;;;;;;;14.45;9.27;;;5.60;78.20;;;;;;5045270;28;20040;-60
2021/03/17 05:02:24;;;;;;;17.48;10.35;;;5.60;78.40;;;;;;5041452;28;20336;-60
2021/03/17 05:04:52;;;;;;;15.27;9.18;;;5.60;78.40;;;;;;5051414;28;20078;-62
2021/03/17 05:07:18;;;;;;;20.10;10.77;;;5.60;79.20;;;;;;5034873;28;20024;-60
2021/03/17 05:09:45;;;;;;;22.52;11.07;;;5.60;78.30;;;;;;5040474;28;20036;-60
2021/03/17 05:12:13;;;;;;;14.68;9.65;;;5.60;78.60;;;;;;5053329;28;20021;-63
2021/03/17 05:14:39;;;;;;;17.40;10.45;;;5.60;78.80;;;;;;5044437;28;20373;-60
2021/03/17 05:17:07;;;;;;;18.17;10.68;;;5.60;78.70;;;;;;5046238;28;20100;-60
2021/03/17 05:19:33;;;;;;;18.45;10.25;;;5.60;78.80;;;;;;5044006;28;20491;-60
2021/03/17 05:22:00;;;;;;;18.77;11.10;;;5.60;78.80;;;;;;5046458;28;20033;-60
2021/03/17 05:24:27;;;;;;;19.80;10.45;;;5.60;78.70;;;;;;5043532;28;20029;-60
2021/03/17 05:26:55;;;;;;;17.30;10.38;;;5.60;78.70;;;;;;5040413;28;20036;-60
2021/03/17 05:29:23;;;;;;;18.02;10.82;;;5.60;78.60;;;;;;5043287;28;20056;-60
2021/03/17 05:31:50;;;;;;;18.88;10.73;;;5.50;78.90;;;;;;5041208;28;20100;-60
2021/03/17 05:34:16;;;;;;;17.33;9.68;;;5.50;79.00;;;;;;5045450;28;20017;-60
2021/03/17 05:36:42;;;;;;;18.85;9.70;;;5.50;79.10;;;;;;5048143;28;20033;-58
2021/03/17 05:39:08;;;;;;;18.70;10.50;;;5.60;79.00;;;;;;5046549;28;20102;-61
2021/03/17 05:41:34;;;;;;;23.38;11.05;;;5.50;78.90;;;;;;5043524;28;20033;-60
2021/03/17 05:44:00;;;;;;;13.60;9.45;;;5.60;79.10;;;;;;5041368;28;20038;-60
2021/03/17 05:46:27;;;;;;;15.57;9.25;;;5.50;79.20;;;;;;5046854;28;20120;-58
2021/03/17 05:48:55;;;;;;;20.30;10.00;;;5.50;79.20;;;;;;5041720;28;20029;-62
2021/03/17 05:51:22;;;;;;;18.33;9.45;;;5.50;79.20;;;;;;5049172;28;20033;-60
2021/03/17 05:53:48;;;;;;;16.90;10.40;;;5.50;79.20;;;;;;5043177;28;20044;-61
2021/03/17 05:56:15;;;;;;;18.30;10.43;;;5.50;79.20;;;;;;5051177;28;20449;-60
2021/03/17 05:58:42;;;;;;;14.98;9.57;;;5.50;79.60;;;;;;5048906;28;20029;-60
2021/03/17 06:01:13;;;;;;;17.75;10.02;;;5.50;79.60;;;;;;5042196;28;20046;-60
2021/03/17 06:03:38;;;;;;;15.23;9.35;;;5.50;79.80;;;;;;5045220;28;20032;-59
2021/03/17 06:06:08;;;;;;;20.90;10.45;;;5.50;80.00;;;;;;5047921;28;20033;-59
2021/03/17 06:08:45;;;;;;;14.55;9.02;;;5.50;80.10;;;;;;5037322;28;20017;-60
2021/03/17 06:11:15;;;;;;;16.02;10.23;;;5.50;80.20;;;;;;5047775;28;20044;-60
2021/03/17 06:13:49;;;;;;;18.73;10.38;;;5.50;80.30;;;;;;5045241;28;20066;-60
2021/03/17 06:16:23;;;;;;;17.23;9.95;;;5.50;80.40;;;;;;5041758;28;20137;-60
2021/03/17 06:18:55;;;;;;;20.23;10.55;;;5.40;80.30;;;;;;5041212;28;20029;-60
2021/03/17 06:21:21;;;;;;;17.65;10.68;;;5.50;80.40;;;;;;5043458;28;20035;-60
2021/03/17 06:23:50;;;;;;;18.65;10.98;;;5.50;80.70;;;;;;5041861;28;20119;-59
2021/03/17 06:26:16;;;;;;;18.67;10.45;;;5.50;80.90;;;;;;5039412;28;20202;-59
2021/03/17 06:28:42;;;;;;;22.35;11.25;;;5.50;80.70;;;;;;5041070;28;20036;-60
2021/03/17 06:31:10;;;;;;;18.67;9.38;;;5.50;80.90;;;;;;5046641;28;20104;-60
2021/03/17 06:33:38;;;;;;;16.13;8.80;;;5.50;80.60;;;;;;5040309;28;20017;-60
2021/03/17 06:36:16;;;;;;;14.88;9.52;;;5.50;80.70;;;;;;5036690;28;20024;-60
2021/03/17 06:38:43;;;;;;;15.10;8.50;;;5.60;80.70;;;;;;5046393;28;20394;-59
2021/03/17 06:41:10;;;;;;;16.63;9.68;;;5.60;80.60;;;;;;5036523;28;20025;-61
2021/03/17 06:43:37;;;;;;;18.77;10.02;;;5.60;80.70;;;;;;5040322;28;20032;-63
2021/03/17 06:46:05;;;;;;;17.85;9.80;;;5.60;80.70;;;;;;5044356;28;20124;-62
2021/03/17 06:48:34;;;;;;;19.23;10.38;;;5.60;80.40;;;;;;5044620;28;20028;-62
2021/03/17 06:51:15;;;;;;;15.93;8.68;;;5.60;80.50;;;;;;5036113;28;20040;-62
2021/03/17 06:53:48;;;;;;;;;;;5.70;80.40;;;;;;5039008;28;20067;-62
2021/03/17 06:56:34;;;;;;;14.73;8.50;;;5.60;80.10;;;;;;5037537;28;19943;-62
2021/03/17 06:59:01;;;;;;;15.40;8.43;;;5.60;80.20;;;;;;5039758;28;20047;-62
2021/03/17 07:01:40;;;;;;;15.32;7.85;;;5.60;80.40;;;;;;5038483;28;20049;-62
2021/03/17 07:04:13;;;;;;;15.10;8.55;;;5.60;80.20;;;;;;5039521;28;20043;-62
2021/03/17 07:06:43;;;;;;;12.85;7.40;;;5.60;80.20;;;;;;5031362;28;20480;-62
2021/03/17 07:09:15;;;;;;;12.95;8.00;;;5.60;80.20;;;;;;5037726;28;20017;-61
2021/03/17 07:11:41;;;;;;;14.32;7.47;;;5.60;80.10;;;;;;5034074;28;20107;-61
2021/03/17 07:14:06;;;;;;;17.73;9.35;;;5.60;80.20;;;;;;5036608;28;20473;-62
2021/03/17 07:16:46;;;;;;;18.80;8.23;;;5.60;80.20;;;;;;5038289;28;20040;-59
2021/03/17 07:19:38;;;;;;;13.70;9.27;;;5.60;80.20;;;;;;5037388;28;20412;-61
2021/03/17 07:22:12;;;;;;;20.48;8.32;;;5.60;80.10;;;;;;5033715;28;20361;-62
2021/03/17 07:24:43;;;;;;;16.23;8.57;;;5.60;80.10;;;;;;5037271;28;20094;-62
2021/03/17 07:27:21;;;;;;;14.98;9.10;;;5.70;80.10;;;;;;5029911;28;20074;-60
2021/03/17 07:30:08;;;;;;;15.63;9.18;;;5.70;80.20;;;;;;5028082;28;20033;-60
2021/03/17 07:32:55;;;;;;;18.55;9.10;;;5.70;80.10;;;;;;5033446;28;20032;-60
2021/03/17 07:35:29;;;;;;;14.63;9.05;;;5.70;79.80;;;;;;5035698;28;20075;-63
2021/03/17 07:38:06;;;;;;;14.73;8.55;;;5.70;79.90;;;;;;5035777;28;20087;-60
2021/03/17 07:40:35;;;;;;;15.48;8.30;;;5.70;79.50;;;;;;5040242;28;20044;-60
2021/03/17 07:43:01;;;;;;;17.30;9.25;;;5.70;79.60;;;;;;5039628;28;20476;-60
2021/03/17 07:45:28;;;;;;;17.25;8.82;;;5.70;79.70;;;;;;5036229;28;20401;-60
2021/03/17 07:47:55;;;;;;;17.73;8.25;;;5.70;79.90;;;;;;5034998;28;20056;-60
2021/03/17 07:50:22;;;;;;;15.10;9.05;;;5.60;79.80;;;;;;5034201;28;20091;-59
2021/03/17 07:52:50;;;;;;;14.95;8.38;;;5.60;80.00;;;;;;5036408;28;20014;-58
2021/03/17 07:55:16;;;;;;;16.40;8.40;;;5.60;80.00;;;;;;5037240;28;20063;-58
2021/03/17 07:57:42;;;;;;;16.95;9.10;;;5.60;80.20;;;;;;5032974;28;20499;-60
2021/03/17 08:00:09;;;;;;;11.10;7.75;;;5.70;80.50;;;;;;5034602;28;20081;-60
2021/03/17 08:02:36;;;;;;;11.75;7.35;;;5.70;80.40;;;;;;5033410;28;20063;-59
2021/03/17 08:05:04;;;;;;;13.20;8.00;;;5.70;80.00;;;;;;5033440;28;20037;-59
2021/03/17 08:07:31;;;;;;;11.95;6.90;;;5.70;80.10;;;;;;5033553;28;20029;-60
2021/03/17 08:09:58;;;;;;;11.57;7.35;;;5.70;80.00;;;;;;5034533;28;20033;-60
2021/03/17 08:12:25;;;;;;;15.25;8.35;;;5.70;80.20;;;;;;5036278;28;20033;-60
2021/03/17 08:14:52;;;;;;;14.60;7.78;;;5.80;80.00;;;;;;5032925;28;20078;-59
2021/03/17 08:17:31;;;;;;;16.05;7.65;;;5.80;79.80;;;;;;5026444;28;20049;-59
2021/03/17 08:20:21;;;;;;;11.35;6.90;;;5.80;79.60;;;;;;5029774;28;20033;-59
2021/03/17 08:22:48;;;;;;;10.77;7.88;;;5.80;79.80;;;;;;5032785;28;20021;-59
2021/03/17 08:25:53;;;;;;;11.27;6.25;;;5.70;79.90;;;;;;5029787;28;20029;-61
2021/03/17 08:28:19;;;;;;;11.07;6.25;;;5.80;79.80;;;;;;4967016;28;20034;-60
2021/03/17 08:30:45;;;;;;;10.70;6.40;;;5.80;79.60;;;;;;4965016;28;20197;-61
2021/03/17 08:33:11;;;;;;;8.95;6.38;;;5.70;79.60;;;;;;4991802;28;20037;-61
2021/03/17 08:35:59;;;;;;;10.05;6.75;;;5.70;79.80;;;;;;5032142;28;20056;-62
2021/03/17 08:38:49;;;;;;;11.80;6.95;;;5.70;79.70;;;;;;5033153;28;20033;-60
2021/03/17 08:41:17;;;;;;;11.52;7.03;;;5.80;79.90;;;;;;5036081;28;20040;-59
2021/03/17 08:43:46;;;;;;;11.15;6.95;;;5.80;80.00;;;;;;5023671;28;22368;-60
2021/03/17 08:46:17;;;;;;;10.35;7.13;;;5.80;79.90;;;;;;5027790;28;20033;-59
2021/03/17 08:49:02;;;;;;;10.48;6.97;;;5.80;80.00;;;;;;5037685;28;20472;-59
2021/03/17 08:51:46;;;;;;;11.40;6.93;;;5.80;79.90;;;;;;5027588;28;20053;-60
2021/03/17 08:54:30;;;;;;;9.32;5.72;;;5.90;79.80;;;;;;5028231;28;20599;-60
2021/03/17 08:57:17;;;;;;;8.32;5.88;;;5.90;79.60;;;;;;5033864;28;20040;-60
2021/03/17 08:59:56;;;;;;;12.40;6.68;;;5.90;79.40;;;;;;5021150;28;20087;-59
2021/03/17 09:02:24;;;;;;;11.65;6.68;;;5.90;79.70;;;;;;5032019;28;20041;-60
2021/03/17 09:05:00;;;;;;;8.13;5.40;;;5.90;79.70;;;;;;5033048;28;20037;-59
2021/03/17 09:07:31;;;;;;;7.63;5.38;;;5.90;79.60;;;;;;5031431;28;20075;-60
2021/03/17 09:10:06;;;;;;;8.48;6.30;;;5.90;79.60;;;;;;5027066;28;20044;-60
2021/03/17 09:12:35;;;;;;;8.68;6.35;;;5.90;79.70;;;;;;5025622;28;20041;-60
2021/03/17 09:15:10;;;;;;;7.45;5.95;;;5.90;79.80;;;;;;5031548;28;20032;-60
2021/03/17 09:17:45;;;;;;;9.95;6.03;;;6.00;79.70;;;;;;5033623;28;20013;-59
2021/03/17 09:20:29;;;;;;;7.40;5.75;;;6.00;79.60;;;;;;5035927;28;20115;-59
2021/03/17 09:22:57;;;;;;;9.13;5.75;;;6.00;79.40;;;;;;5032309;28;20028;-60
2021/03/17 09:25:30;;;;;;;6.88;5.03;;;6.00;79.60;;;;;;5031972;28;20034;-60
2021/03/17 09:28:01;;;;;;;8.20;5.90;;;6.00;79.50;;;;;;5033675;28;20684;-61
2021/03/17 09:30:28;;;;;;;9.55;6.70;;;6.00;79.60;;;;;;5030706;28;20031;-59
2021/03/17 09:33:09;;;;;;;9.40;6.07;;;6.00;79.50;;;;;;5033910;28;20035;-60
2021/03/17 09:35:36;;;;;;;9.85;6.40;;;6.00;79.60;;;;;;5032463;28;20024;-60
2021/03/17 09:38:12;;;;;;;7.88;5.90;;;6.10;79.70;;;;;;5030836;28;20033;-60
2021/03/17 09:40:45;;;;;;;8.02;5.40;;;6.10;79.60;;;;;;5026903;28;20045;-60
2021/03/17 09:43:38;;;;;;;10.48;6.18;;;6.10;79.40;;;;;;5033983;28;20064;-59
2021/03/17 09:46:22;;;;;;;7.20;5.72;;;6.10;79.40;;;;;;5029719;28;20041;-60
2021/03/17 09:48:50;;;;;;;7.25;5.15;;;6.20;79.60;;;;;;5032786;28;20130;-60
2021/03/17 09:51:21;;;;;;;7.20;4.95;;;6.20;79.60;;;;;;5032040;28;20520;-60
2021/03/17 09:53:48;;;;;;;8.40;5.15;;;6.20;79.50;;;;;;5033472;28;20026;-60
2021/03/17 09:56:14;;;;;;;9.15;5.60;;;6.20;79.20;;;;;;5025335;28;20061;-59
2021/03/17 09:58:40;;;;;;;7.65;5.75;;;6.20;79.30;;;;;;5032241;28;20065;-60
2021/03/17 10:01:12;;;;;;;6.43;5.28;;;6.20;79.30;;;;;;5020796;28;20103;-60
2021/03/17 10:03:43;;;;;;;6.00;4.93;;;6.30;79.50;;;;;;5028675;28;20025;-60
2021/03/17 10:06:09;;;;;;;8.20;5.20;;;6.30;79.70;;;;;;5030064;28;20511;-61
2021/03/17 10:08:35;;;;;;;7.57;5.72;;;6.30;79.60;;;;;;5028003;28;20037;-60
2021/03/17 10:11:01;;;;;;;6.63;5.40;;;6.30;79.40;;;;;;5029582;28;20110;-60
2021/03/17 10:13:32;;;;;;;7.85;5.22;;;6.40;79.40;;;;;;5029669;28;20409;-60
2021/03/17 10:15:58;;;;;;;7.78;5.47;;;6.40;79.40;;;;;;5031635;28;20497;-61
2021/03/17 10:18:23;;;;;;;7.93;5.30;;;6.50;79.30;;;;;;5028926;28;20116;-59
2021/03/17 10:20:50;;;;;;;8.70;5.78;;;6.50;79.40;;;;;;5016878;28;20037;-61
2021/03/17 10:23:16;;;;;;;6.97;5.35;;;6.50;79.10;;;;;;5012346;28;20448;-60
2021/03/17 10:25:42;;;;;;;6.70;5.10;;;6.50;79.00;;;;;;5020889;28;20032;-61
2021/03/17 10:28:11;;;;;;;6.43;5.18;;;6.50;78.90;;;;;;5024503;28;20117;-62
2021/03/17 10:30:42;;;;;;;8.32;4.82;;;6.50;79.10;;;;;;5023182;28;20995;-60
2021/03/17 10:33:11;;;;;;;6.28;4.93;;;6.60;79.30;;;;;;5027259;28;20163;-60
2021/03/17 10:35:38;;;;;;;6.47;4.80;;;6.50;78.90;;;;;;5032030;28;20044;-60
2021/03/17 10:38:06;;;;;;;6.07;4.95;;;6.50;78.90;;;;;;5025934;28;20064;-60
2021/03/17 10:40:32;;;;;;;6.07;4.57;;;6.50;78.90;;;;;;5030858;28;20040;-60
2021/03/17 10:43:05;;;;;;;6.55;4.78;;;6.50;78.70;;;;;;5028486;28;20052;-60
2021/03/17 10:45:41;;;;;;;6.57;4.90;;;6.60;79.00;;;;;;5028248;28;20030;-60
2021/03/17 10:48:18;;;;;;;7.43;4.90;;;6.50;78.50;;;;;;5028768;28;20942;-59
2021/03/17 10:50:45;;;;;;;5.82;4.38;;;6.50;78.40;;;;;;5027981;28;20092;-60
2021/03/17 10:53:22;;;;;;;7.68;4.95;;;6.50;78.50;;;;;;5028018;28;20036;-60
2021/03/17 10:55:53;;;;;;;5.47;4.22;;;6.50;78.50;;;;;;5032660;28;20420;-60
2021/03/17 10:58:21;;;;;;;6.78;4.57;;;6.50;78.70;;;;;;5024240;28;20060;-61
2021/03/17 11:01:01;;;;;;;5.72;4.50;;;6.50;78.80;;;;;;5025490;28;20049;-61
2021/03/17 11:03:35;;;;;;;6.57;5.13;;;6.50;78.80;;;;;;5022312;28;20072;-60
2021/03/17 11:06:15;;;;;;;6.72;4.30;;;6.50;78.90;;;;;;5019747;28;20644;-61
2021/03/17 11:08:42;;;;;;;4.80;3.85;;;6.50;79.40;;;;;;5022190;28;20036;-61
2021/03/17 11:11:09;;;;;;;5.95;4.85;;;6.50;79.10;;;;;;5029444;28;20092;-60
2021/03/17 11:13:36;;;;;;;6.25;4.50;;;6.50;78.90;;;;;;5029309;28;20090;-61
2021/03/17 11:16:08;;;;;;;8.23;4.30;;;6.50;79.20;;;;;;5027194;28;20717;-61
2021/03/17 11:18:46;;;;;;;6.97;4.35;;;6.60;79.20;;;;;;5031034;28;20031;-61
2021/03/17 11:21:20;;;;;;;6.82;5.00;;;6.60;79.30;;;;;;5031090;28;20031;-62
2021/03/17 11:23:46;;;;;;;5.97;4.68;;;6.60;79.10;;;;;;5024678;28;20029;-61
2021/03/17 11:26:19;;;;;;;7.05;4.20;;;6.70;79.10;;;;;;5020710;28;20914;-61
2021/03/17 11:28:45;;;;;;;4.78;4.10;;;6.70;79.20;;;;;;5025500;28;20029;-61
2021/03/17 11:31:12;;;;;;;6.18;4.80;;;6.70;78.80;;;;;;5030221;28;20075;-60
2021/03/17 11:33:39;;;;;;;5.75;4.20;;;6.70;79.10;;;;;;5030157;28;20769;-61
2021/03/17 11:36:06;;;;;;;5.97;4.38;;;6.70;78.90;;;;;;5035471;28;20036;-61
2021/03/17 11:38:33;;;;;;;6.13;4.50;;;6.70;79.00;;;;;;5034678;28;20721;-61
2021/03/17 11:41:00;;;;;;;4.70;3.90;;;6.70;78.70;;;;;;5033815;28;20052;-60
2021/03/17 11:43:28;;;;;;;4.70;3.97;;;6.80;78.80;;;;;;5035089;28;20029;-60
2021/03/17 11:45:55;;;;;;;5.28;4.20;;;6.80;78.90;;;;;;5030951;28;20029;-60
2021/03/17 11:48:21;;;;;;;5.90;4.55;;;6.80;78.90;;;;;;5032984;28;20033;-61
2021/03/17 11:50:52;;;;;;;6.18;4.60;;;6.80;79.00;;;;;;5030078;28;20037;-61
2021/03/17 11:53:19;;;;;;;5.32;4.40;;;6.80;78.90;;;;;;5037474;28;20030;-60
2021/03/17 11:55:45;;;;;;;5.15;3.90;;;6.80;78.80;;;;;;5034062;28;20048;-61
2021/03/17 11:58:12;;;;;;;5.43;3.92;;;6.90;79.00;;;;;;5028596;28;20029;-61
2021/03/17 12:00:38;;;;;;;5.18;4.25;;;6.90;79.00;;;;;;5033562;28;20091;-61
2021/03/17 12:03:05;;;;;;;6.65;4.15;;;6.90;78.90;;;;;;5031343;28;20118;-62
2021/03/17 12:05:31;;;;;;;5.65;4.40;;;6.90;78.60;;;;;;5029898;28;20033;-62
2021/03/17 12:07:57;;;;;;;5.60;4.45;;;6.90;78.80;;;;;;5020699;28;20400;-61
2021/03/17 12:10:24;;;;;;;5.63;4.10;;;6.90;78.70;;;;;;5030920;28;20055;-61
2021/03/17 12:12:50;;;;;;;5.85;4.85;;;6.90;78.40;;;;;;5032691;28;20030;-61
2021/03/17 12:15:19;;;;;;;6.13;4.43;;;6.90;78.50;;;;;;5036420;28;20033;-62
2021/03/17 12:17:46;;;;;;;6.95;4.47;;;7.00;78.80;;;;;;5038133;28;20489;-60
2021/03/17 12:20:13;;;;;;;6.15;4.65;;;7.00;78.80;;;;;;5036331;28;20034;-60
2021/03/17 12:22:39;;;;;;;6.10;4.93;;;6.90;78.80;;;;;;5036257;28;20062;-59
2021/03/17 12:25:06;;;;;;;4.63;3.38;;;6.90;78.70;;;;;;5033535;28;20033;-60
2021/03/17 12:27:32;;;;;;;5.53;3.90;;;7.00;78.90;;;;;;5037396;28;20501;-60
2021/03/17 12:29:58;;;;;;;5.15;3.83;;;7.00;78.70;;;;;;5032686;28;20080;-60
2021/03/17 12:32:24;;;;;;;5.22;4.30;;;6.90;78.60;;;;;;5028818;28;21190;-60
2021/03/17 12:34:50;;;;;;;5.53;3.90;;;7.00;78.70;;;;;;5027564;28;20141;-59
2021/03/17 12:37:15;;;;;;;6.10;3.97;;;7.00;78.60;;;;;;5029960;28;20025;-60
2021/03/17 12:39:42;;;;;;;4.13;3.60;;;6.90;78.40;;;;;;5032695;28;20124;-62
2021/03/17 12:42:09;;;;;;;4.80;3.80;;;6.90;78.40;;;;;;5024505;28;20998;-60
2021/03/17 12:44:35;;;;;;;4.43;3.72;;;7.00;78.60;;;;;;5034516;28;20033;-60
2021/03/17 12:47:01;;;;;;;5.63;3.75;;;7.00;78.40;;;;;;5031537;28;20048;-61
2021/03/17 12:49:28;;;;;;;3.97;3.53;;;6.90;78.50;;;;;;5033684;28;20372;-60
2021/03/17 12:51:54;;;;;;;4.40;3.70;;;7.00;78.60;;;;;;5033418;28;20604;-61
2021/03/17 12:54:20;;;;;;;4.85;4.28;;;7.00;78.40;;;;;;5035352;28;20060;-62
2021/03/17 12:56:46;;;;;;;6.20;5.00;;;7.00;78.60;;;;;;5032496;28;20133;-61
2021/03/17 12:59:12;;;;;;;6.45;4.35;;;7.00;78.50;;;;;;5028734;28;20624;-61
2021/03/17 13:01:38;;;;;;;5.18;4.05;;;7.00;78.50;;;;;;5027578;28;21024;-61